createdAt,value
2023-04-02T00:00:58.630Z,99.99
2023-04-02T00:01:58.543Z,99.99
2023-04-02T00:02:58.567Z,99.99
2023-04-02T00:03:58.517Z,99.99
2023-04-02T00:04:58.377Z,99.99
2023-04-02T00:05:58.291Z,99.99
2023-04-02T00:06:58.258Z,99.99
2023-04-02T00:07:58.144Z,99.99
2023-04-02T00:08:58.116Z,99.99
2023-04-02T00:09:58.064Z,99.99
2023-04-02T00:10:57.971Z,99.99
2023-04-02T00:11:57.935Z,99.99
2023-04-02T00:12:57.852Z,99.99
2023-04-02T00:13:57.754Z,99.99
2023-04-02T00:14:57.778Z,99.99
2023-04-02T00:15:57.815Z,99.99
2023-04-02T00:16:57.636Z,99.99
2023-04-02T00:17:57.597Z,99.99
2023-04-02T00:18:57.466Z,99.99
2023-04-02T00:19:57.402Z,99.99
2023-04-02T00:20:57.338Z,99.99
2023-04-02T00:21:57.247Z,99.99
2023-04-02T00:22:57.210Z,99.99
2023-04-02T00:23:57.147Z,99.99
2023-04-02T00:24:57.099Z,99.99
2023-04-02T00:25:57.021Z,99.99
2023-04-02T00:26:56.950Z,99.99
2023-04-02T00:27:56.874Z,99.99
2023-04-02T00:28:56.814Z,99.99
2023-04-02T00:29:56.740Z,99.99
2023-04-02T00:30:56.685Z,99.99
2023-04-02T00:31:56.655Z,99.99
2023-04-02T00:32:56.653Z,99.99
2023-04-02T00:33:56.514Z,99.99
2023-04-02T00:34:56.447Z,99.99
2023-04-02T00:35:56.443Z,99.99
2023-04-02T00:36:56.334Z,99.99
2023-04-02T00:37:56.303Z,99.99
2023-04-02T00:39:00.226Z,99.99
2023-04-02T00:39:56.107Z,99.99
2023-04-02T00:40:56.088Z,99.99
2023-04-02T00:41:56.094Z,99.99
2023-04-02T00:42:55.948Z,99.99
2023-04-02T00:43:55.913Z,99.99
2023-04-02T00:44:55.850Z,99.99
2023-04-02T00:45:55.874Z,99.99
2023-04-02T00:46:55.716Z,99.99
2023-04-02T00:47:55.641Z,99.99
2023-04-02T00:48:55.593Z,99.99
2023-04-02T00:49:55.532Z,99.99
2023-04-02T00:50:55.452Z,99.99
2023-04-02T00:51:55.375Z,99.99
2023-04-02T00:52:55.309Z,99.99
2023-04-02T00:53:55.283Z,99.99
2023-04-02T00:54:55.187Z,99.99
2023-04-02T00:55:55.156Z,99.99
2023-04-02T00:56:55.397Z,99.99
2023-04-02T00:57:55.000Z,99.99
2023-04-02T00:58:54.961Z,99.99
2023-04-02T00:59:54.998Z,99.99
2023-04-02T01:00:54.815Z,99.99
2023-04-02T01:01:54.725Z,99.99
2023-04-02T01:02:54.795Z,99.99
2023-04-02T01:03:54.637Z,99.99
2023-04-02T01:04:54.551Z,99.99
2023-04-02T01:05:54.498Z,99.99
2023-04-02T01:06:54.431Z,99.99
2023-04-02T01:07:54.406Z,99.99
2023-04-02T01:08:54.352Z,99.99
2023-04-02T01:09:54.270Z,99.99
2023-04-02T01:10:54.167Z,99.99
2023-04-02T01:11:54.121Z,99.99
2023-04-02T01:12:54.045Z,99.99
2023-04-02T01:13:53.989Z,99.99
2023-04-02T01:14:53.957Z,99.99
2023-04-02T01:15:53.955Z,99.99
2023-04-02T01:16:53.763Z,99.99
2023-04-02T01:17:53.727Z,99.99
2023-04-02T01:18:53.668Z,99.99
2023-04-02T01:19:53.580Z,99.99
2023-04-02T01:20:53.602Z,99.99
2023-04-02T01:21:53.519Z,99.99
2023-04-02T01:22:53.439Z,99.99
2023-04-02T01:23:53.352Z,99.99
2023-04-02T01:24:53.265Z,99.99
2023-04-02T01:25:53.202Z,99.99
2023-04-02T01:26:53.193Z,99.99
2023-04-02T01:27:53.098Z,99.99
2023-04-02T01:28:53.072Z,99.99
2023-04-02T01:29:53.004Z,99.99
2023-04-02T01:30:52.912Z,99.99
2023-04-02T01:31:52.860Z,99.99
2023-04-02T01:35:11.258Z,99.99
2023-04-02T01:36:12.223Z,99.99
2023-04-02T01:37:12.104Z,99.99
2023-04-02T01:38:12.069Z,99.99
2023-04-02T01:39:11.969Z,99.99
2023-04-02T01:40:11.917Z,99.99
2023-04-02T01:41:11.836Z,99.99
2023-04-02T01:42:11.801Z,99.99
2023-04-02T01:43:11.713Z,99.99
2023-04-02T01:44:11.622Z,99.99
2023-04-02T01:45:11.586Z,99.99
2023-04-02T01:46:11.540Z,99.99
2023-04-02T01:47:11.435Z,99.99
2023-04-02T01:48:11.443Z,99.99
2023-04-02T01:49:11.301Z,99.99
2023-04-02T01:50:11.265Z,99.99
2023-04-02T01:51:11.202Z,99.99
2023-04-02T01:54:30.578Z,99.99
2023-04-02T01:55:31.559Z,99.99
2023-04-02T01:56:31.457Z,99.99
2023-04-02T01:57:31.418Z,99.99
2023-04-02T01:58:31.333Z,99.99
2023-04-02T01:59:31.287Z,99.99
2023-04-02T02:00:31.272Z,99.99
2023-04-02T02:01:31.120Z,99.99
2023-04-02T02:02:31.213Z,99.99
2023-04-02T02:03:30.991Z,99.99
2023-04-02T02:04:30.979Z,99.99
2023-04-02T02:05:30.927Z,99.99
2023-04-02T02:06:30.827Z,99.99
2023-04-02T02:07:30.764Z,99.99
2023-04-02T02:08:30.702Z,99.99
2023-04-02T02:09:30.628Z,99.99
2023-04-02T02:10:30.639Z,99.99
2023-04-02T02:11:34.564Z,99.99
2023-04-02T02:12:30.447Z,99.99
2023-04-02T02:13:30.437Z,99.99
2023-04-02T02:14:30.343Z,99.99
2023-04-02T02:15:30.265Z,99.99
2023-04-02T02:16:30.297Z,99.99
2023-04-02T02:17:30.164Z,99.99
2023-04-02T02:18:30.047Z,99.99
2023-04-02T02:19:30.015Z,99.99
2023-04-02T02:20:29.953Z,99.99
2023-04-02T02:21:29.858Z,99.99
2023-04-02T02:22:29.885Z,99.99
2023-04-02T02:23:29.816Z,99.99
2023-04-02T02:24:29.727Z,99.99
2023-04-02T02:25:29.643Z,99.99
2023-04-02T02:26:29.576Z,99.99
2023-04-02T02:27:29.501Z,99.99
2023-04-02T02:28:29.466Z,99.99
2023-04-02T02:31:47.907Z,99.99
2023-04-02T02:32:48.798Z,99.99
2023-04-02T02:33:48.661Z,99.99
2023-04-02T02:34:48.661Z,99.99
2023-04-02T02:35:48.596Z,99.99
2023-04-02T02:36:48.489Z,99.99
2023-04-02T02:37:48.459Z,99.99
2023-04-02T02:38:48.385Z,99.99
2023-04-02T02:39:49.312Z,99.99
2023-04-02T02:40:48.236Z,99.99
2023-04-02T02:41:48.214Z,99.99
2023-04-02T02:42:48.190Z,99.99
2023-04-02T02:43:48.060Z,99.99
2023-04-02T02:44:48.012Z,99.99
2023-04-02T02:45:47.946Z,99.99
2023-04-02T02:46:47.896Z,99.99
2023-04-02T02:47:47.822Z,99.99
2023-04-02T02:53:24.595Z,99.99
2023-04-02T02:54:25.547Z,99.99
2023-04-02T02:55:25.477Z,99.99
2023-04-02T02:56:25.416Z,99.99
2023-04-02T02:57:25.390Z,99.99
2023-04-02T02:58:25.327Z,99.99
2023-04-02T02:59:25.257Z,99.99
2023-04-02T03:00:25.165Z,99.99
2023-04-02T03:01:25.106Z,99.99
2023-04-02T03:02:25.117Z,99.99
2023-04-02T03:03:25.116Z,99.99
2023-04-02T03:04:25.245Z,99.99
2023-04-02T03:05:24.874Z,99.99
2023-04-02T03:06:24.778Z,99.99
2023-04-02T03:07:24.697Z,99.99
2023-04-02T03:08:24.642Z,99.99
2023-04-02T03:09:24.569Z,99.99
2023-04-02T03:12:42.955Z,99.99
2023-04-02T03:13:43.906Z,99.99
2023-04-02T03:14:43.835Z,99.99
2023-04-02T03:15:43.846Z,99.99
2023-04-02T03:16:43.746Z,99.99
2023-04-02T03:17:43.736Z,99.99
2023-04-02T03:18:43.620Z,99.99
2023-04-02T03:19:43.530Z,99.99
2023-04-02T03:20:43.462Z,99.99
2023-04-02T03:21:43.425Z,99.99
2023-04-02T03:22:43.339Z,99.99
2023-04-02T03:23:43.282Z,99.99
2023-04-02T03:24:43.186Z,99.99
2023-04-02T03:25:43.154Z,99.99
2023-04-02T03:26:43.120Z,99.99
2023-04-02T03:27:43.010Z,99.99
2023-04-02T03:28:42.976Z,99.99
2023-04-02T03:29:43.040Z,99.99
2023-04-02T03:30:42.841Z,99.99
2023-04-02T03:31:42.913Z,99.99
2023-04-02T03:32:42.685Z,99.99
2023-04-02T03:33:42.689Z,99.99
2023-04-02T03:34:42.614Z,99.99
2023-04-02T03:35:42.583Z,99.99
2023-04-02T03:36:42.495Z,99.99
2023-04-02T03:37:42.417Z,99.99
2023-04-02T03:38:42.282Z,99.99
2023-04-02T03:39:42.245Z,99.99
2023-04-02T03:40:42.233Z,99.99
2023-04-02T03:41:42.153Z,99.99
2023-04-02T03:42:42.069Z,99.99
2023-04-02T03:43:42.032Z,99.99
2023-04-02T03:44:41.923Z,99.99
2023-04-02T03:45:41.915Z,99.99
2023-04-02T03:46:41.881Z,99.99
2023-04-02T03:47:41.851Z,99.99
2023-04-02T03:48:42.372Z,99.99
2023-04-02T03:49:41.640Z,99.99
2023-04-02T03:50:41.548Z,99.99
2023-04-02T03:51:41.487Z,99.99
2023-04-02T03:52:41.445Z,99.99
2023-04-02T03:53:41.408Z,99.99
2023-04-02T03:54:41.315Z,99.99
2023-04-02T03:55:41.269Z,99.99
2023-04-02T03:56:41.156Z,99.99
2023-04-02T03:57:41.145Z,99.99
2023-04-02T03:58:41.088Z,99.99
2023-04-02T03:59:41.036Z,99.99
2023-04-02T04:00:40.954Z,99.99
2023-04-02T04:01:40.934Z,99.99
2023-04-02T04:02:40.841Z,99.99
2023-04-02T04:03:40.816Z,99.99
2023-04-02T04:04:40.678Z,99.99
2023-04-02T04:05:40.903Z,99.99
2023-04-02T04:06:40.551Z,99.99
2023-04-02T04:07:40.495Z,99.99
2023-04-02T04:08:40.394Z,99.99
2023-04-02T04:09:40.330Z,99.99
2023-04-02T04:10:40.296Z,99.99
2023-04-02T04:11:40.227Z,99.99
2023-04-02T04:12:40.198Z,99.99
2023-04-02T04:13:40.129Z,99.99
2023-04-02T04:14:40.054Z,99.99
2023-04-02T04:15:39.964Z,99.99
2023-04-02T04:16:40.467Z,99.99
2023-04-02T04:17:39.898Z,99.99
2023-04-02T04:18:39.826Z,99.99
2023-04-02T04:19:39.730Z,99.99
2023-04-02T04:20:39.628Z,99.99
2023-04-02T04:21:39.606Z,99.99
2023-04-02T04:22:39.525Z,99.99
2023-04-02T04:23:39.466Z,99.99
2023-04-02T04:24:39.433Z,99.99
2023-04-02T04:25:39.337Z,99.99
2023-04-02T04:26:39.306Z,99.99
2023-04-02T04:27:39.219Z,99.99
2023-04-02T04:28:39.125Z,99.99
2023-04-02T04:29:39.109Z,99.99
2023-04-02T04:30:38.998Z,99.99
2023-04-02T04:31:39.116Z,99.99
2023-04-02T04:32:38.955Z,99.99
2023-04-02T04:33:38.856Z,99.99
2023-04-02T04:34:38.729Z,99.99
2023-04-02T04:35:39.089Z,99.99
2023-04-02T04:36:38.590Z,99.99
2023-04-02T04:37:38.584Z,99.99
2023-04-02T04:38:38.493Z,99.99
2023-04-02T04:39:38.377Z,99.99
2023-04-02T04:40:38.362Z,99.99
2023-04-02T04:41:38.346Z,99.99
2023-04-02T04:42:38.218Z,99.99
2023-04-02T04:43:38.155Z,99.99
2023-04-02T04:44:38.049Z,99.99
2023-04-02T04:45:38.079Z,99.99
2023-04-02T04:46:37.961Z,99.99
2023-04-02T04:47:37.966Z,99.99
2023-04-02T04:48:37.804Z,99.99
2023-04-02T04:49:37.772Z,99.99
2023-04-02T04:50:37.717Z,99.99
2023-04-02T04:51:37.638Z,99.99
2023-04-02T04:52:37.574Z,99.99
2023-04-02T04:53:37.515Z,99.99
2023-04-02T04:54:37.474Z,99.99
2023-04-02T04:55:37.764Z,99.99
2023-04-02T04:56:37.319Z,99.99
2023-04-02T04:57:37.222Z,99.99
2023-04-02T04:58:37.169Z,99.99
2023-04-02T04:59:37.116Z,99.99
2023-04-02T05:00:37.085Z,99.99
2023-04-02T05:01:37.083Z,99.99
2023-04-02T05:02:36.987Z,99.99
2023-04-02T05:03:36.869Z,99.99
2023-04-02T05:04:36.818Z,99.99
2023-04-02T05:05:37.063Z,99.99
2023-04-02T05:06:36.678Z,99.99
2023-04-02T05:07:36.692Z,99.99
2023-04-02T05:08:36.579Z,99.99
2023-04-02T05:09:36.491Z,99.99
2023-04-02T05:10:36.420Z,99.99
2023-04-02T05:13:48.510Z,99.99
2023-04-02T05:14:49.389Z,99.99
2023-04-02T05:15:49.406Z,99.99
2023-04-02T05:16:49.293Z,99.99
2023-04-02T05:17:49.292Z,99.99
2023-04-02T05:18:49.137Z,99.99
2023-04-02T05:19:49.150Z,99.99
2023-04-02T05:20:49.058Z,99.99
2023-04-02T05:21:48.967Z,99.99
2023-04-02T05:22:48.936Z,99.99
2023-04-02T05:23:48.867Z,99.99
2023-04-02T05:24:48.807Z,99.99
2023-04-02T05:25:48.744Z,99.99
2023-04-02T05:26:48.654Z,99.99
2023-04-02T05:27:48.619Z,99.99
2023-04-02T05:28:48.498Z,99.99
2023-04-02T05:29:48.508Z,99.99
2023-04-02T05:30:48.399Z,99.99
2023-04-02T05:31:48.418Z,99.99
2023-04-02T05:32:48.291Z,99.99
2023-04-02T05:33:48.205Z,99.99
2023-04-02T05:34:48.176Z,99.99
2023-04-02T05:35:52.132Z,99.99
2023-04-02T05:36:48.042Z,99.99
2023-04-02T05:37:47.959Z,99.99
2023-04-02T05:38:47.902Z,99.99
2023-04-02T05:39:47.829Z,99.99
2023-04-02T05:40:47.766Z,99.99
2023-04-02T05:41:47.752Z,99.99
2023-04-02T05:42:47.622Z,99.99
2023-04-02T05:43:47.575Z,99.99
2023-04-02T05:44:47.512Z,99.99
2023-04-02T05:45:47.450Z,99.99
2023-04-02T05:46:47.403Z,99.99
2023-04-02T05:47:47.450Z,99.99
2023-04-02T05:48:47.251Z,99.99
2023-04-02T05:49:47.168Z,99.99
2023-04-02T05:50:47.169Z,99.99
2023-04-02T05:51:47.072Z,99.99
2023-04-02T05:52:47.035Z,99.99
2023-04-02T05:53:49.403Z,99.99
2023-04-02T05:54:46.887Z,99.99
2023-04-02T05:55:46.842Z,99.99
2023-04-02T05:56:46.768Z,99.99
2023-04-02T05:58:01.130Z,99.99
2023-04-02T05:58:46.702Z,99.99
2023-04-02T05:59:46.610Z,99.99
2023-04-02T06:00:46.471Z,99.99
2023-04-02T06:01:46.492Z,99.99
2023-04-02T06:02:46.370Z,99.99
2023-04-02T06:03:46.396Z,99.99
2023-04-02T06:04:46.251Z,99.99
2023-04-02T06:05:46.197Z,99.99
2023-04-02T06:06:46.089Z,99.99
2023-04-02T06:07:46.053Z,99.99
2023-04-02T06:08:45.990Z,99.99
2023-04-02T06:09:45.929Z,99.99
2023-04-02T06:10:45.836Z,99.99
2023-04-02T06:14:04.164Z,99.99
2023-04-02T06:15:05.125Z,99.99
2023-04-02T06:16:05.057Z,99.99
2023-04-02T06:17:05.030Z,99.99
2023-04-02T06:18:04.950Z,99.99
2023-04-02T06:19:04.846Z,99.99
2023-04-02T06:20:04.801Z,99.99
2023-04-02T06:21:04.746Z,99.99
2023-04-02T06:22:04.671Z,99.99
2023-04-02T06:23:04.580Z,99.99
2023-04-02T06:24:04.555Z,99.99
2023-04-02T06:25:04.489Z,99.99
2023-04-02T06:26:04.360Z,99.99
2023-04-02T06:27:04.354Z,99.99
2023-04-02T06:28:04.309Z,99.99
2023-04-02T06:29:04.225Z,99.99
2023-04-02T06:30:04.173Z,99.99
2023-04-02T06:31:04.135Z,99.99
2023-04-02T06:32:04.044Z,99.99
2023-04-02T06:33:03.977Z,99.99
2023-04-02T06:34:03.878Z,99.99
2023-04-02T06:35:03.820Z,99.99
2023-04-02T06:36:03.813Z,99.99
2023-04-02T06:37:03.712Z,99.99
2023-04-02T06:38:03.649Z,99.99
2023-04-02T06:39:03.592Z,99.99
2023-04-02T06:40:03.496Z,99.99
2023-04-02T06:41:03.437Z,99.99
2023-04-02T06:42:03.386Z,99.99
2023-04-02T06:43:03.609Z,99.99
2023-04-02T06:44:03.246Z,99.99
2023-04-02T06:45:03.165Z,99.99
2023-04-02T06:46:03.148Z,99.99
2023-04-02T06:47:03.073Z,99.99
2023-04-02T06:48:03.024Z,99.99
2023-04-02T06:49:02.952Z,99.99
2023-04-02T06:50:02.840Z,99.99
2023-04-02T06:51:02.822Z,99.99
2023-04-02T06:52:02.763Z,99.94
2023-04-02T06:53:02.675Z,99.99
2023-04-02T06:54:02.635Z,99.90
2023-04-02T06:55:02.570Z,99.99
2023-04-02T06:56:02.517Z,99.99
2023-04-02T06:57:02.477Z,99.99
2023-04-02T06:58:02.342Z,99.99
2023-04-02T06:59:02.327Z,99.99
2023-04-02T07:00:02.218Z,99.99
2023-04-02T07:01:02.186Z,99.99
2023-04-02T07:02:02.071Z,99.99
2023-04-02T07:03:02.080Z,99.99
2023-04-02T07:04:01.965Z,99.99
2023-04-02T07:05:01.973Z,99.99
2023-04-02T07:06:01.809Z,99.99
2023-04-02T07:07:01.759Z,99.79
2023-04-02T07:08:01.712Z,99.37
2023-04-02T07:09:01.654Z,99.27
2023-04-02T07:10:01.554Z,99.06
2023-04-02T07:11:01.483Z,98.96
2023-04-02T07:12:01.422Z,99.27
2023-04-02T07:13:01.399Z,99.16
2023-04-02T07:14:01.329Z,99.16
2023-04-02T07:15:01.281Z,99.27
2023-04-02T07:16:01.253Z,98.75
2023-04-02T07:17:01.101Z,99.27
2023-04-02T07:18:01.097Z,99.58
2023-04-02T07:19:01.081Z,99.37
2023-04-02T07:20:00.940Z,99.68
2023-04-02T07:21:00.923Z,99.58
2023-04-02T07:22:00.838Z,99.58
2023-04-02T07:23:00.749Z,99.27
2023-04-02T07:24:00.688Z,98.85
2023-04-02T07:25:00.660Z,98.75
2023-04-02T07:26:00.553Z,99.06
2023-04-02T07:27:00.487Z,99.27
2023-04-02T07:28:00.421Z,99.79
2023-04-02T07:29:00.372Z,99.68
2023-04-02T07:30:00.299Z,99.68
2023-04-02T07:31:00.283Z,99.79
2023-04-02T07:32:00.168Z,99.27
2023-04-02T07:33:00.125Z,99.06
2023-04-02T07:34:00.223Z,98.96
2023-04-02T07:34:59.952Z,98.75
2023-04-02T07:35:59.973Z,98.96
2023-04-02T07:36:59.882Z,99.16
2023-04-02T07:37:59.778Z,99.06
2023-04-02T07:38:59.751Z,98.75
2023-04-02T07:39:59.654Z,98.71
2023-04-02T07:40:59.620Z,98.13
2023-04-02T07:41:59.541Z,97.81
2023-04-02T07:43:06.964Z,97.61
2023-04-02T07:43:59.435Z,98.02
2023-04-02T07:44:59.335Z,98.02
2023-04-02T07:45:59.301Z,97.81
2023-04-02T07:46:59.293Z,98.02
2023-04-02T07:47:59.212Z,98.02
2023-04-02T07:48:59.099Z,98.02
2023-04-02T07:49:59.006Z,97.71
2023-04-02T07:50:58.926Z,97.61
2023-04-02T07:51:58.877Z,97.71
2023-04-02T07:52:58.822Z,98.13
2023-04-02T07:53:58.758Z,97.81
2023-04-02T07:54:58.690Z,97.92
2023-04-02T07:55:58.637Z,98.33
2023-04-02T07:56:58.607Z,98.02
2023-04-02T07:57:58.481Z,98.23
2023-04-02T07:58:58.476Z,98.02
2023-04-02T07:59:58.401Z,98.02
2023-04-02T08:00:58.345Z,98.02
2023-04-02T08:01:58.286Z,98.23
2023-04-02T08:02:58.292Z,98.65
2023-04-02T08:03:58.161Z,98.65
2023-04-02T08:04:58.093Z,98.85
2023-04-02T08:05:58.021Z,98.85
2023-04-02T08:06:57.911Z,98.85
2023-04-02T08:07:57.855Z,98.85
2023-04-02T08:08:57.794Z,98.23
2023-04-02T08:09:57.734Z,98.13
2023-04-02T08:10:57.652Z,98.19
2023-04-02T08:11:57.649Z,98.29
2023-04-02T08:12:57.626Z,98.19
2023-04-02T08:13:57.513Z,98.29
2023-04-02T08:14:57.421Z,97.50
2023-04-02T08:15:57.328Z,96.83
2023-04-02T08:16:57.379Z,97.04
2023-04-02T08:17:57.274Z,97.04
2023-04-02T08:23:33.858Z,96.73
2023-04-02T08:24:34.850Z,97.14
2023-04-02T08:25:34.819Z,97.25
2023-04-02T08:26:34.701Z,97.14
2023-04-02T08:27:34.603Z,96.73
2023-04-02T08:28:34.521Z,96.73
2023-04-02T08:29:34.466Z,96.52
2023-04-02T08:30:34.476Z,96.52
2023-04-02T08:31:34.359Z,97.56
2023-04-02T08:32:34.295Z,97.56
2023-04-02T08:33:34.183Z,97.56
2023-04-02T08:34:34.169Z,98.03
2023-04-02T08:35:34.764Z,97.41
2023-04-02T08:36:34.023Z,97.10
2023-04-02T08:37:33.964Z,96.48
2023-04-02T08:40:52.246Z,97.52
2023-04-02T08:41:53.188Z,96.58
2023-04-02T08:42:53.132Z,97.10
2023-04-02T08:43:53.084Z,97.00
2023-04-02T08:44:52.975Z,96.48
2023-04-02T08:45:53.258Z,96.48
2023-04-02T08:46:52.870Z,96.17
2023-04-02T08:47:52.832Z,96.58
2023-04-02T08:48:52.746Z,96.54
2023-04-02T08:49:52.677Z,96.23
2023-04-02T08:50:52.612Z,96.02
2023-04-02T08:51:52.593Z,96.02
2023-04-02T08:52:52.485Z,95.61
2023-04-02T08:53:52.420Z,96.23
2023-04-02T08:54:52.350Z,95.50
2023-04-02T08:55:52.317Z,95.61
2023-04-02T08:56:52.261Z,96.44
2023-04-02T08:57:52.190Z,95.40
2023-04-02T08:58:52.137Z,95.09
2023-04-02T08:59:52.032Z,95.50
2023-04-02T09:00:52.005Z,96.12
2023-04-02T09:01:51.952Z,95.92
2023-04-02T09:02:51.906Z,94.98
2023-04-02T09:03:51.796Z,94.15
2023-04-02T09:04:51.769Z,94.46
2023-04-02T09:05:51.697Z,94.78
2023-04-02T09:06:51.616Z,95.40
2023-04-02T09:07:51.526Z,95.71
2023-04-02T09:08:51.488Z,95.09
2023-04-02T09:09:51.414Z,95.29
2023-04-02T09:10:51.301Z,95.92
2023-04-02T09:11:51.241Z,95.71
2023-04-02T09:12:51.215Z,95.71
2023-04-02T09:13:51.137Z,95.71
2023-04-02T09:14:51.099Z,94.78
2023-04-02T09:15:55.050Z,94.78
2023-04-02T09:16:50.944Z,94.78
2023-04-02T09:17:54.416Z,95.09
2023-04-02T09:18:50.798Z,95.81
2023-04-02T09:19:50.782Z,96.02
2023-04-02T09:20:50.708Z,95.50
2023-04-02T09:21:50.637Z,95.29
2023-04-02T09:22:50.561Z,94.57
2023-04-02T09:23:50.504Z,94.36
2023-04-02T09:24:50.465Z,94.15
2023-04-02T09:26:02.976Z,94.46
2023-04-02T09:26:50.346Z,93.84
2023-04-02T09:27:50.789Z,93.95
2023-04-02T09:28:50.185Z,93.74
2023-04-02T09:29:50.127Z,93.12
2023-04-02T09:30:50.050Z,92.59
2023-04-02T09:31:50.000Z,93.01
2023-04-02T09:32:49.961Z,93.32
2023-04-02T09:33:51.089Z,93.22
2023-04-02T09:34:49.773Z,93.01
2023-04-02T09:35:49.754Z,92.38
2023-04-02T09:36:49.669Z,92.49
2023-04-02T09:37:49.588Z,93.53
2023-04-02T09:38:49.569Z,94.46
2023-04-02T09:39:49.502Z,94.15
2023-04-02T09:40:49.411Z,93.12
2023-04-02T09:41:59.139Z,92.80
2023-04-02T09:42:49.299Z,92.86
2023-04-02T09:43:49.239Z,92.66
2023-04-02T09:44:49.140Z,92.97
2023-04-02T09:45:49.160Z,92.03
2023-04-02T09:46:49.079Z,92.76
2023-04-02T09:47:49.005Z,93.18
2023-04-02T09:48:48.888Z,92.55
2023-04-02T09:49:49.354Z,92.24
2023-04-02T09:50:48.811Z,92.76
2023-04-02T09:54:07.064Z,91.68
2023-04-02T09:55:07.989Z,90.95
2023-04-02T09:56:07.901Z,90.95
2023-04-02T09:57:07.911Z,90.02
2023-04-02T09:58:07.799Z,91.16
2023-04-02T09:59:07.736Z,90.33
2023-04-02T10:00:10.315Z,90.02
2023-04-02T10:01:07.643Z,90.33
2023-04-02T10:02:07.541Z,89.92
2023-04-02T10:03:07.556Z,90.02
2023-04-02T10:04:07.440Z,88.98
2023-04-02T10:05:07.382Z,89.04
2023-04-02T10:06:07.284Z,88.84
2023-04-02T10:07:07.221Z,89.36
2023-04-02T10:08:07.154Z,88.01
2023-04-02T10:09:07.073Z,87.18
2023-04-02T10:10:07.030Z,87.80
2023-04-02T10:11:06.972Z,88.21
2023-04-02T10:12:06.929Z,86.87
2023-04-02T10:13:06.809Z,87.28
2023-04-02T10:14:06.769Z,85.83
2023-04-02T10:15:06.710Z,87.07
2023-04-02T10:16:06.695Z,87.07
2023-04-02T10:17:06.652Z,86.97
2023-04-02T10:18:06.573Z,86.87
2023-04-02T10:19:06.512Z,86.55
2023-04-02T10:20:06.459Z,87.24
2023-04-02T10:21:06.348Z,86.52
2023-04-02T10:22:06.255Z,85.38
2023-04-02T10:23:06.588Z,85.17
2023-04-02T10:24:06.113Z,84.86
2023-04-02T10:25:06.097Z,85.17
2023-04-02T10:26:06.040Z,84.86
2023-04-02T10:27:05.965Z,83.93
2023-04-02T10:28:05.895Z,83.89
2023-04-02T10:31:24.261Z,84.20
2023-04-02T10:32:25.133Z,84.30
2023-04-02T10:33:25.084Z,84.09
2023-04-02T10:34:25.038Z,84.16
2023-04-02T10:35:25.054Z,83.89
2023-04-02T10:36:24.936Z,83.06
2023-04-02T10:37:24.837Z,83.58
2023-04-02T10:38:24.798Z,84.09
2023-04-02T10:39:24.732Z,84.09
2023-04-02T10:40:24.632Z,83.78
2023-04-02T10:41:24.584Z,84.09
2023-04-02T10:42:24.570Z,85.65
2023-04-02T10:43:24.487Z,85.75
2023-04-02T10:44:24.362Z,84.82
2023-04-02T10:45:24.327Z,84.30
2023-04-02T10:46:25.579Z,83.26
2023-04-02T10:47:24.174Z,84.41
2023-04-02T10:48:25.360Z,85.27
2023-04-02T10:49:24.138Z,84.75
2023-04-02T10:50:23.979Z,84.65
2023-04-02T10:51:23.952Z,84.44
2023-04-02T10:52:23.856Z,85.06
2023-04-02T10:53:23.889Z,84.65
2023-04-02T10:54:23.802Z,85.38
2023-04-02T10:55:23.723Z,84.48
2023-04-02T10:56:23.631Z,84.59
2023-04-02T10:57:23.630Z,84.28
2023-04-02T10:58:23.486Z,84.48
2023-04-02T10:59:23.420Z,84.38
2023-04-02T11:00:23.391Z,83.45
2023-04-02T11:01:23.339Z,84.59
2023-04-02T11:02:23.301Z,84.28
2023-04-02T11:03:23.272Z,83.97
2023-04-02T11:04:23.143Z,84.07
2023-04-02T11:05:23.050Z,83.65
2023-04-02T11:06:23.011Z,83.45
2023-04-02T11:07:22.933Z,82.93
2023-04-02T11:08:22.861Z,84.48
2023-04-02T11:09:22.832Z,84.48
2023-04-02T11:10:22.733Z,84.38
2023-04-02T11:11:22.719Z,84.69
2023-04-02T11:12:22.623Z,85.11
2023-04-02T11:13:22.645Z,85.11
2023-04-02T11:14:22.477Z,84.69
2023-04-02T11:15:22.400Z,83.24
2023-04-02T11:16:22.405Z,84.28
2023-04-02T11:17:22.384Z,84.28
2023-04-02T11:18:22.262Z,84.07
2023-04-02T11:19:22.188Z,84.03
2023-04-02T11:20:22.132Z,82.41
2023-04-02T11:21:22.009Z,83.34
2023-04-02T11:22:21.967Z,83.03
2023-04-02T11:23:21.908Z,84.28
2023-04-02T11:26:40.203Z,84.17
2023-04-02T11:27:41.144Z,83.20
2023-04-02T11:28:41.069Z,83.72
2023-04-02T11:29:40.984Z,83.41
2023-04-02T11:30:40.950Z,82.68
2023-04-02T11:31:40.957Z,83.00
2023-04-02T11:32:40.863Z,82.89
2023-04-02T11:33:44.741Z,83.31
2023-04-02T11:34:40.722Z,83.10
2023-04-02T11:35:40.944Z,82.06
2023-04-02T11:36:40.562Z,81.02
2023-04-02T11:37:40.529Z,81.13
2023-04-02T11:38:40.426Z,81.75
2023-04-02T11:39:40.418Z,80.40
2023-04-02T11:40:40.274Z,80.78
2023-04-02T11:41:40.243Z,81.92
2023-04-02T11:42:40.226Z,81.71
2023-04-02T11:43:40.125Z,80.99
2023-04-02T11:44:40.064Z,79.85
2023-04-02T11:45:51.953Z,79.74
2023-04-02T11:46:39.966Z,79.95
2023-04-02T11:47:39.893Z,79.64
2023-04-02T11:48:39.783Z,79.95
2023-04-02T11:49:39.928Z,78.88
2023-04-02T11:50:39.668Z,78.57
2023-04-02T11:51:39.606Z,78.88
2023-04-02T11:52:39.543Z,78.47
2023-04-02T11:53:39.482Z,78.78
2023-04-02T11:54:39.422Z,77.91
2023-04-02T11:55:39.659Z,78.33
2023-04-02T11:56:39.304Z,76.57
2023-04-02T11:57:39.377Z,77.50
2023-04-02T11:58:39.194Z,77.19
2023-04-02T11:59:39.098Z,77.60
2023-04-02T12:00:39.042Z,77.50
2023-04-02T12:03:57.351Z,76.15
2023-04-02T12:04:58.308Z,75.74
2023-04-02T12:05:58.226Z,76.98
2023-04-02T12:06:58.148Z,76.67
2023-04-02T12:07:58.114Z,75.70
2023-04-02T12:08:58.445Z,76.12
2023-04-02T12:09:57.936Z,74.15
2023-04-02T12:10:57.895Z,77.15
2023-04-02T12:11:57.837Z,77.84
2023-04-02T12:12:57.743Z,77.64
2023-04-02T12:13:57.674Z,75.84
2023-04-02T12:14:57.665Z,77.29
2023-04-02T12:15:57.552Z,75.78
2023-04-02T12:16:57.560Z,77.64
2023-04-02T12:17:57.429Z,76.29
2023-04-02T12:18:57.364Z,77.50
2023-04-02T12:19:57.266Z,77.60
2023-04-02T12:25:33.977Z,75.12
2023-04-02T12:26:34.905Z,75.95
2023-04-02T12:27:34.878Z,75.05
2023-04-02T12:28:34.802Z,74.71
2023-04-02T12:29:34.709Z,74.91
2023-04-02T12:30:34.936Z,75.43
2023-04-02T12:31:34.582Z,74.91
2023-04-02T12:32:34.580Z,75.09
2023-04-02T12:33:34.484Z,75.29
2023-04-02T12:34:34.399Z,74.46
2023-04-02T12:35:34.415Z,73.02
2023-04-02T12:36:34.341Z,71.98
2023-04-02T12:37:34.204Z,71.88
2023-04-02T12:38:34.172Z,73.22
2023-04-02T12:39:34.090Z,72.71
2023-04-02T12:40:34.332Z,71.98
2023-04-02T12:41:33.982Z,70.82
2023-04-02T12:42:54.888Z,73.36
2023-04-02T12:43:33.842Z,71.41
2023-04-02T12:44:33.745Z,71.92
2023-04-02T12:45:33.749Z,71.81
2023-04-02T12:46:33.691Z,72.74
2023-04-02T12:47:33.574Z,72.33
2023-04-02T12:48:33.495Z,70.89
2023-04-02T12:49:33.481Z,70.27
2023-04-02T12:50:33.606Z,69.48
2023-04-02T12:51:33.323Z,70.30
2023-04-02T12:52:33.258Z,71.75
2023-04-02T12:53:33.210Z,70.72
2023-04-02T12:54:33.176Z,70.30
2023-04-02T12:55:33.072Z,70.09
2023-04-02T12:56:33.009Z,69.58
2023-04-02T12:57:32.983Z,68.75
2023-04-02T12:58:32.884Z,70.23
2023-04-02T12:59:32.797Z,70.64
2023-04-02T13:02:51.197Z,70.09
2023-04-02T13:03:52.079Z,70.20
2023-04-02T13:04:51.949Z,70.33
2023-04-02T13:05:51.918Z,71.37
2023-04-02T13:06:51.830Z,70.51
2023-04-02T13:07:51.819Z,70.03
2023-04-02T13:08:51.734Z,70.54
2023-04-02T13:09:51.642Z,71.16
2023-04-02T13:10:51.613Z,71.47
2023-04-02T13:11:51.538Z,71.37
2023-04-02T13:12:51.473Z,70.64
2023-04-02T13:13:51.421Z,70.03
2023-04-02T13:14:51.376Z,70.12
2023-04-02T13:15:51.304Z,70.82
2023-04-02T13:16:51.280Z,71.85
2023-04-02T13:17:51.218Z,72.57
2023-04-02T13:18:51.144Z,72.36
2023-04-02T13:19:51.075Z,71.26
2023-04-02T13:20:51.000Z,71.47
2023-04-02T13:21:50.905Z,71.16
2023-04-02T13:22:50.817Z,70.75
2023-04-02T13:23:50.806Z,70.20
2023-04-02T13:24:50.725Z,72.16
2023-04-02T13:25:50.645Z,71.44
2023-04-02T13:26:50.590Z,72.09
2023-04-02T13:27:50.539Z,70.64
2023-04-02T13:28:50.468Z,70.85
2023-04-02T13:29:50.390Z,70.54
2023-04-02T13:30:50.385Z,70.85
2023-04-02T13:31:50.860Z,71.16
2023-04-02T13:32:50.291Z,70.43
2023-04-02T13:33:50.147Z,70.33